Time;durP1;ratioP1;P1;durP2;ratioP2;P2;SDS_P1;SDS_P2;PMS_P1;PMS_P2;Temp;Humidity;BMP_temperature;BMP_pressure;BME280_temperature;BME280_humidity;BME280_pressure;Samples;Min_cycle;Max_cycle;Signal;HPM_P1;HPM_P2
2021/03/09 00:04:48;;;;;;;20.88;17.85;;;;;;;6.25;56.65;100556.56;10299831;28;20067;-66
2021/03/09 00:09:49;;;;;;;24.25;19.63;;;;;;;6.29;56.64;100560.75;10293047;28;20478;-68
2021/03/09 00:14:50;;;;;;;20.38;18.17;;;;;;;6.29;56.50;100554.59;10276712;28;20101;-67
2021/03/09 00:20:05;;;;;;;22.30;19.00;;;;;;;6.24;56.55;100546.09;10269766;28;20043;-68
2021/03/09 00:25:07;;;;;;;22.15;19.30;;;;;;;6.19;56.76;100556.94;10257590;28;20061;-68
2021/03/09 00:30:09;;;;;;;23.73;19.25;;;;;;;6.17;57.15;100553.50;10278493;28;20066;-69
2021/03/09 00:35:12;;;;;;;25.63;19.63;;;;;;;6.11;57.20;100546.81;10279144;28;20057;-68
2021/03/09 00:40:13;;;;;;;24.13;18.85;;;;;;;6.13;57.17;100546.72;10276983;28;20129;-68
2021/03/09 00:45:14;;;;;;;22.27;17.70;;;;;;;6.08;57.17;100540.81;10281454;28;20097;-67
2021/03/09 00:50:29;;;;;;;23.20;19.70;;;;;;;6.08;57.43;100540.81;10259091;28;20051;-69
2021/03/09 00:55:30;;;;;;;23.60;20.25;;;;;;;5.85;57.95;100537.66;10280923;28;20486;-67
2021/03/09 01:00:31;;;;;;;22.23;19.75;;;;;;;5.91;57.94;100541.75;10280847;28;20138;-67
2021/03/09 01:05:33;;;;;;;20.88;18.40;;;;;;;5.80;58.25;100537.94;10267107;28;20184;-67
2021/03/09 01:10:35;;;;;;;20.83;18.33;;;;;;;5.82;58.26;100529.91;10261386;28;20047;-67
2021/03/09 01:15:36;;;;;;;22.15;19.70;;;;;;;5.79;58.51;100524.81;10268027;28;20549;-67
2021/03/09 01:20:52;;;;;;;;;;;;;;;5.76;58.70;100517.06;10270286;28;20053;-68
2021/03/09 01:25:53;;;;;;;21.30;18.20;;;;;;;5.71;57.79;100508.53;10275153;28;19930;-67
2021/03/09 01:30:54;;;;;;;23.05;18.38;;;;;;;5.75;58.00;100507.41;10279762;28;20136;-67
2021/03/09 01:35:56;;;;;;;18.23;15.60;;;;;;;5.73;57.23;100510.16;10252542;28;20475;-67
2021/03/09 01:40:57;;;;;;;21.48;16.27;;;;;;;5.61;57.45;100492.34;10266579;28;20050;-68
2021/03/09 01:45:59;;;;;;;17.77;15.88;;;;;;;5.62;57.14;100502.81;10275465;28;20097;-68
2021/03/09 01:51:18;;;;;;;16.00;14.30;;;;;;;5.54;56.60;100489.22;10262856;28;20539;-66
2021/03/09 01:56:20;;;;;;;18.42;15.18;;;;;;;5.53;56.94;100490.13;10286234;28;20176;-65
2021/03/09 02:01:21;;;;;;;19.10;16.38;;;;;;;5.53;57.64;100490.13;10279776;28;20061;-66
2021/03/09 02:06:22;;;;;;;20.35;16.05;;;;;;;5.52;58.28;100484.94;10279938;28;20145;-71
2021/03/09 02:11:42;;;;;;;19.70;16.25;;;;;;;5.61;58.15;100485.25;10283687;28;20067;-67
2021/03/09 02:16:53;;;;;;;20.83;17.15;;;;;;;5.64;58.30;100474.56;10288879;28;20178;-68
2021/03/09 02:22:20;;;;;;;16.63;14.82;;;;;;;5.46;57.25;100472.94;10280981;28;20082;-67
2021/03/09 02:27:36;;;;;;;19.38;15.68;;;;;;;5.42;57.48;100468.75;10263112;28;20131;-68
2021/03/09 02:32:56;;;;;;;20.10;15.52;;;;;;;5.36;57.42;100461.16;10268910;28;20043;-67
2021/03/09 02:38:03;;;;;;;18.80;15.73;;;;;;;5.44;57.65;100454.53;10280643;28;20047;-67
2021/03/09 02:43:11;;;;;;;23.40;18.17;;;;;;;5.55;58.47;100459.19;10291877;28;20077;-66
2021/03/09 02:48:14;;;;;;;19.98;17.85;;;;;;;5.47;58.38;100442.97;10281961;28;20061;-69
2021/03/09 02:53:15;;;;;;;21.05;17.90;;;;;;;5.49;59.04;100446.34;10283765;28;20065;-66
2021/03/09 02:58:19;;;;;;;20.55;17.58;;;;;;;5.49;59.19;100449.00;10298784;28;20047;-67
2021/03/09 03:03:21;;;;;;;26.42;21.33;;;;;;;5.42;59.36;100444.97;10286960;28;20093;-66
2021/03/09 03:08:23;;;;;;;25.25;20.90;;;;;;;5.37;59.53;100439.13;10273805;28;20137;-66
2021/03/09 03:13:26;;;;;;;21.63;17.75;;;;;;;5.36;59.20;100426.84;10272641;28;20500;-67
2021/03/09 03:18:30;;;;;;;21.15;18.38;;;;;;;4.95;59.93;100431.72;10276496;28;20105;-67
2021/03/09 03:23:32;;;;;;;21.45;16.38;;;;;;;5.06;59.77;100430.25;10281960;28;20461;-66
2021/03/09 03:28:37;;;;;;;22.15;17.33;;;;;;;5.02;60.13;100418.19;10259583;28;20091;-67
2021/03/09 03:33:39;;;;;;;19.83;17.70;;;;;;;5.04;59.60;100411.03;10272208;28;20050;-67
2021/03/09 03:38:43;;;;;;;19.55;16.35;;;;;;;5.08;59.95;100417.84;10268408;28;20391;-66
2021/03/09 03:43:44;;;;;;;20.25;17.63;;;;;;;5.04;60.50;100421.56;10276252;28;20477;-67
2021/03/09 03:48:46;;;;;;;21.88;19.15;;;;;;;5.06;59.81;100419.69;10262492;28;20059;-67
2021/03/09 03:54:03;;;;;;;20.13;15.98;;;;;;;5.01;60.09;100424.38;10279988;28;20441;-67
2021/03/09 03:59:07;;;;;;;18.55;16.00;;;;;;;5.00;59.45;100425.31;10275666;28;20039;-67
2021/03/09 04:04:11;;;;;;;23.93;17.23;;;;;;;4.91;59.66;100409.06;10273233;28;20050;-66
2021/03/09 04:09:15;;;;;;;20.83;16.83;;;;;;;4.94;59.84;100419.44;10282585;28;20082;-67
2021/03/09 04:14:17;;;;;;;20.00;16.48;;;;;;;4.93;59.91;100416.91;10275669;28;20161;-69
2021/03/09 04:19:20;;;;;;;19.25;16.05;;;;;;;4.89;59.98;100410.06;10269420;28;20106;-67
2021/03/09 04:24:24;;;;;;;18.55;15.98;;;;;;;4.89;59.93;100413.56;10284256;28;20121;-68
2021/03/09 04:29:26;;;;;;;19.63;15.98;;;;;;;4.88;59.86;100411.88;10282172;28;20602;-66
2021/03/09 04:34:27;;;;;;;19.48;16.55;;;;;;;4.73;59.87;100412.69;10268403;28;20057;-67
2021/03/09 04:39:28;;;;;;;19.60;16.00;;;;;;;4.72;60.05;100416.25;10272037;28;20462;-66
2021/03/09 04:44:30;;;;;;;18.33;16.35;;;;;;;4.73;60.50;100418.81;10277377;28;20545;-68
2021/03/09 04:49:34;;;;;;;20.60;16.40;;;;;;;4.71;60.53;100414.56;10275279;28;20138;-66
2021/03/09 04:54:37;;;;;;;19.67;16.30;;;;;;;4.68;60.21;100412.91;10278787;28;20082;-66
2021/03/09 04:59:38;;;;;;;22.25;16.75;;;;;;;4.62;60.73;100401.88;10274344;28;20050;-66
2021/03/09 05:04:40;;;;;;;18.45;15.93;;;;;;;4.60;60.84;100413.34;10276824;28;20133;-67
2021/03/09 05:09:41;;;;;;;19.00;15.02;;;;;;;4.56;61.00;100411.81;10268209;28;20125;-67
2021/03/09 05:14:43;;;;;;;19.88;15.90;;;;;;;4.57;60.90;100408.22;10258154;28;20070;-67
2021/03/09 05:19:44;;;;;;;17.23;15.10;;;;;;;4.43;61.36;100410.75;10278525;28;20591;-66
2021/03/09 05:24:46;;;;;;;18.50;15.30;;;;;;;4.33;61.87;100412.16;10265191;28;20515;-66
2021/03/09 05:29:47;;;;;;;18.02;16.13;;;;;;;4.29;62.05;100407.97;10280877;28;20085;-66
2021/03/09 05:34:48;;;;;;;21.58;16.05;;;;;;;4.19;62.79;100413.72;10294180;28;20394;-66
2021/03/09 05:39:50;;;;;;;20.00;15.77;;;;;;;4.29;62.12;100413.25;10278842;28;20059;-68
2021/03/09 05:44:53;;;;;;;21.20;17.15;;;;;;;4.29;61.97;100414.09;10284162;28;20047;-66
2021/03/09 05:49:57;;;;;;;19.23;16.15;;;;;;;4.28;61.87;100408.91;10319373;28;20055;-67
2021/03/09 05:54:59;;;;;;;17.93;15.47;;;;;;;4.25;62.03;100415.19;10314377;28;20053;-67
2021/03/09 06:00:01;;;;;;;20.80;16.75;;;;;;;4.27;61.73;100415.13;10270286;28;20049;-66
2021/03/09 06:05:04;;;;;;;19.58;16.85;;;;;;;4.22;62.16;100408.28;10274736;28;20099;-67
2021/03/09 06:10:18;;;;;;;18.60;15.82;;;;;;;4.27;61.89;100413.31;10280507;28;20082;-68
2021/03/09 06:15:19;;;;;;;20.42;15.93;;;;;;;4.36;61.55;100420.75;10251172;28;20078;-67
2021/03/09 06:20:23;;;;;;;19.67;16.27;;;;;;;4.20;61.76;100414.56;10288097;28;20078;-68
2021/03/09 06:25:32;;;;;;;20.67;15.88;;;;;;;4.36;61.18;100410.22;10294563;28;20077;-68
2021/03/09 06:30:35;;;;;;;21.52;17.02;;;;;;;4.40;61.07;100410.91;10305194;28;20061;-67
2021/03/09 06:35:43;;;;;;;18.10;16.20;;;;;;;4.45;60.98;100411.50;10272236;28;20050;-67
2021/03/09 06:41:04;;;;;;;20.10;16.17;;;;;;;4.54;60.73;100413.66;10282000;28;20486;-67
2021/03/09 06:46:12;;;;;;;19.40;16.25;;;;;;;4.62;60.03;100404.50;10242374;28;20055;-67
2021/03/09 06:51:49;;;;;;;18.73;16.42;;;;;;;4.73;59.72;100404.78;10275062;28;20078;-66
2021/03/09 06:56:50;;;;;;;20.67;16.02;;;;;;;4.72;59.82;100405.72;10190829;28;20047;-67
2021/03/09 07:02:05;;;;;;;18.98;16.92;;;;;;;4.78;60.02;100415.94;10275260;28;20102;-66
2021/03/09 07:07:08;;;;;;;19.20;16.48;;;;;;;4.94;59.78;100427.34;10276636;28;20413;-69
2021/03/09 07:12:12;;;;;;;20.13;15.77;;;;;;;4.88;59.77;100411.88;10272264;28;20058;-68
2021/03/09 07:17:15;;;;;;;18.77;16.63;;;;;;;5.08;58.86;100417.84;10275126;28;20071;-68
2021/03/09 07:22:18;;;;;;;21.40;17.10;;;;;;;5.03;58.80;100430.41;10279712;28;20743;-67
2021/03/09 07:27:26;;;;;;;18.55;16.05;;;;;;;5.18;58.42;100440.16;10262916;28;20093;-67
2021/03/09 07:32:29;;;;;;;18.88;16.30;;;;;;;5.21;58.41;100437.34;10273420;28;20054;-67
2021/03/09 07:37:34;;;;;;;22.43;18.40;;;;;;;5.39;57.84;100445.16;10281213;28;20061;-65
2021/03/09 07:42:36;;;;;;;18.20;16.23;;;;;;;5.64;57.39;100440.22;10263392;28;20521;-67
2021/03/09 07:47:49;;;;;;;20.55;16.92;;;;;;;5.70;56.87;100446.94;10271798;28;20082;-68
2021/03/09 07:52:59;;;;;;;18.58;15.13;;;;;;;5.96;56.50;100447.22;10251623;28;20124;-68
2021/03/09 07:58:23;;;;;;;20.23;16.20;;;;;;;6.27;55.30;100440.16;10269764;28;20081;-68
2021/03/09 08:03:46;;;;;;;22.00;17.20;;;;;;;6.64;54.86;100436.16;10256587;28;20570;-67
2021/03/09 08:08:51;;;;;;;20.58;17.35;;;;;;;7.03;53.21;100439.06;10273948;28;21119;-67
2021/03/09 08:14:03;;;;;;;21.65;16.70;;;;;;;7.35;52.03;100436.19;10284728;28;20054;-67
2021/03/09 08:19:13;;;;;;;24.20;17.00;;;;;;;7.26;51.61;100435.81;10282226;28;20486;-68
2021/03/09 08:24:15;;;;;;;21.13;16.85;;;;;;;7.28;52.03;100437.50;10290485;28;20069;-68
2021/03/09 08:29:28;;;;;;;22.17;18.70;;;;;;;7.33;51.62;100436.28;10289792;28;20141;-67
2021/03/09 08:34:29;;;;;;;23.88;17.98;;;;;;;7.39;51.33;100430.59;10271351;28;20133;-68
2021/03/09 08:39:30;;;;;;;21.50;17.05;;;;;;;7.49;51.05;100435.28;10286386;28;20066;-67
2021/03/09 08:44:32;;;;;;;22.50;16.95;;;;;;;7.62;50.78;100430.88;10292287;28;20050;-68
2021/03/09 08:49:36;;;;;;;21.23;17.08;;;;;;;7.87;49.76;100429.28;10267942;28;20462;-68
2021/03/09 08:54:49;;;;;;;20.35;16.40;;;;;;;7.98;49.30;100424.09;10266307;28;20122;-68
2021/03/09 08:59:59;;;;;;;20.02;17.10;;;;;;;8.34;48.23;100429.69;10266436;28;20051;-67
2021/03/09 09:05:03;;;;;;;19.17;16.77;;;;;;;8.58;47.47;100403.28;10278436;28;20497;-67
2021/03/09 09:10:13;;;;;;;24.00;16.15;;;;;;;9.08;46.72;100417.44;10283045;28;20047;-68
2021/03/09 09:15:17;;;;;;;17.52;14.02;;;;;;;8.96;45.68;100407.69;10282423;28;20098;-68
2021/03/09 09:20:34;;;;;;;16.55;13.57;;;;;;;8.79;45.92;100404.44;10278583;28;20062;-67
2021/03/09 09:25:43;;;;;;;15.93;14.32;;;;;;;9.38;45.47;100408.22;10265384;28;20055;-67
2021/03/09 09:30:46;;;;;;;19.58;14.63;;;;;;;9.55;44.79;100410.50;10275052;28;20046;-68
2021/03/09 09:35:48;;;;;;;17.83;14.13;;;;;;;9.62;45.07;100415.34;10267950;28;20058;-68
2021/03/09 09:41:00;;;;;;;18.88;14.98;;;;;;;9.90;45.00;100401.69;10270543;28;20050;-68
2021/03/09 09:46:08;;;;;;;17.52;14.35;;;;;;;10.83;42.68;100402.59;10272892;28;20057;-69
2021/03/09 09:51:14;;;;;;;16.95;14.85;;;;;;;10.43;42.40;100403.06;10259921;28;20134;-69
2021/03/09 09:56:19;;;;;;;16.08;14.38;;;;;;;10.76;41.33;100396.06;10264327;28;20086;-69
2021/03/09 10:01:32;;;;;;;14.43;13.05;;;;;;;10.59;41.76;100387.59;10276853;28;20055;-68
2021/03/09 10:06:49;;;;;;;16.37;12.80;;;;;;;10.95;40.79;100385.63;10259827;28;20047;-69
2021/03/09 10:11:53;;;;;;;13.80;12.18;;;;;;;11.18;40.54;100390.94;10280818;28;20444;-69
2021/03/09 10:16:55;;;;;;;14.73;12.55;;;;;;;11.62;39.16;100377.59;10276497;28;20161;-69
2021/03/09 10:21:57;;;;;;;13.98;11.55;;;;;;;12.29;38.24;100376.41;10277682;28;20047;-69
2021/03/09 10:27:17;;;;;;;13.95;11.70;;;;;;;11.75;38.93;100370.25;10273930;28;20047;-69
2021/03/09 10:32:19;;;;;;;13.48;11.32;;;;;;;11.78;39.18;100374.50;10283782;28;20543;-69
2021/03/09 10:37:35;;;;;;;12.75;11.18;;;;;;;11.43;39.71;100373.78;10276882;28;20054;-69
2021/03/09 10:42:43;;;;;;;11.85;10.65;;;;;;;11.51;38.78;100362.50;10273342;28;20057;-68
2021/03/09 10:47:53;;;;;;;12.10;10.57;;;;;;;12.17;37.60;100356.13;10280485;28;20194;-67
2021/03/09 10:52:55;;;;;;;12.13;8.00;;;;;;;12.38;37.22;100348.97;10265675;28;20059;-68
2021/03/09 10:57:56;;;;;;;13.15;9.77;;;;;;;12.45;36.93;100348.44;10256218;28;20514;-69
2021/03/09 11:02:58;;;;;;;11.27;9.00;;;;;;;12.45;36.85;100348.44;10285816;28;20080;-69
2021/03/09 11:07:59;;;;;;;12.13;9.75;;;;;;;12.35;36.32;100341.19;10254508;28;20057;-69
2021/03/09 11:13:00;;;;;;;9.82;7.80;;;;;;;12.26;36.30;100347.31;10270550;28;20130;-68
2021/03/09 11:18:01;;;;;;;11.00;9.38;;;;;;;11.92;37.02;100352.88;10291259;28;20067;-68
2021/03/09 11:23:07;;;;;;;9.50;7.55;;;;;;;11.72;38.00;100345.69;10278196;28;20531;-69
2021/03/09 11:28:08;;;;;;;7.10;6.40;;;;;;;11.41;38.06;100341.09;10287170;28;20063;-68
2021/03/09 11:33:09;;;;;;;9.90;6.68;;;;;;;11.02;38.67;100345.19;10266336;28;20102;-68
2021/03/09 11:38:11;;;;;;;9.80;8.18;;;;;;;10.60;39.50;100338.72;10272817;28;20154;-68
2021/03/09 11:43:12;;;;;;;11.68;9.20;;;;;;;9.93;41.10;100338.63;10256241;28;20142;-68
2021/03/09 11:48:14;;;;;;;10.60;9.45;;;;;;;9.80;41.21;100336.03;10256700;28;20154;-68
2021/03/09 11:53:15;;;;;;;11.98;8.95;;;;;;;9.94;41.37;100340.28;10257033;28;20130;-67
2021/03/09 11:58:18;;;;;;;10.10;9.02;;;;;;;10.05;41.19;100330.53;10257751;28;20050;-67
2021/03/09 12:03:20;;;;;;;11.77;9.27;;;;;;;10.48;40.33;100321.06;10256266;28;20066;-68
2021/03/09 12:08:22;;;;;;;11.07;9.20;;;;;;;12.54;37.07;100304.91;10256257;28;20059;-68
2021/03/09 12:13:23;;;;;;;10.82;9.32;;;;;;;11.32;38.29;100316.03;10238669;28;20188;-68
2021/03/09 12:18:24;;;;;;;11.68;9.23;;;;;;;11.09;38.75;100311.75;10255972;28;20065;-67
2021/03/09 12:23:26;;;;;;;11.48;8.88;;;;;;;10.90;38.83;100299.94;10255534;28;20528;-67
2021/03/09 12:28:41;;;;;;;10.68;9.07;;;;;;;10.47;40.96;100291.91;10239559;28;20055;-67
2021/03/09 12:33:42;;;;;;;15.90;12.18;;;;;;;10.51;42.00;100290.66;10256052;28;20482;-66
2021/03/09 12:38:44;;;;;;;13.98;11.93;;;;;;;10.91;41.45;100287.47;10236924;28;20536;-68
2021/03/09 12:43:45;;;;;;;13.77;11.48;;;;;;;10.50;41.65;100283.69;10251339;28;20130;-68
2021/03/09 12:48:46;;;;;;;11.93;10.63;;;;;;;10.82;41.28;100272.25;10239495;28;20073;-68
2021/03/09 12:53:48;;;;;;;14.63;10.70;;;;;;;11.44;39.71;100273.34;10237539;28;20055;-66
2021/03/09 12:59:02;;;;;;;12.25;9.00;;;;;;;10.87;40.49;100278.03;10256186;28;20429;-68
2021/03/09 13:04:04;;;;;;;11.77;9.55;;;;;;;10.18;41.92;100255.13;10237353;28;20050;-68
2021/03/09 13:09:06;;;;;;;11.13;9.43;;;;;;;9.75;43.05;100255.81;10255155;28;20086;-67
2021/03/09 13:14:07;;;;;;;12.88;10.60;;;;;;;9.48;43.98;100243.66;10255866;28;20090;-67
2021/03/09 13:19:09;;;;;;;10.93;9.40;;;;;;;9.44;43.90;100236.88;10255330;28;20087;-67
2021/03/09 13:24:10;;;;;;;9.63;8.45;;;;;;;9.38;43.85;100238.19;10256882;28;20184;-67
2021/03/09 13:29:24;;;;;;;12.30;8.95;;;;;;;9.29;44.38;100249.50;10240389;28;20552;-67
2021/03/09 13:34:26;;;;;;;10.38;9.25;;;;;;;9.13;44.73;100240.03;10255025;28;20144;-66
2021/03/09 13:39:27;;;;;;;9.45;7.75;;;;;;;9.11;44.91;100252.59;10254424;28;20462;-67
2021/03/09 13:44:28;;;;;;;10.15;7.60;;;;;;;8.95;45.13;100231.63;10237319;28;20657;-70
2021/03/09 13:49:30;;;;;;;8.52;7.15;;;;;;;8.93;45.15;100233.56;10251553;28;20745;-66
2021/03/09 13:54:31;;;;;;;9.02;7.05;;;;;;;8.82;45.77;100236.16;10245951;28;20086;-66
2021/03/09 13:59:33;;;;;;;9.80;6.82;;;;;;;8.77;45.49;100219.72;10266688;28;20473;-67
2021/03/09 14:04:35;;;;;;;9.13;7.50;;;;;;;8.96;45.71;100229.81;10251558;28;20149;-66
2021/03/09 14:09:37;;;;;;;8.95;6.45;;;;;;;8.82;44.55;100231.69;10279287;28;20062;-66
2021/03/09 14:14:38;;;;;;;8.00;6.45;;;;;;;8.97;44.89;100223.56;10265001;28;20162;-67
2021/03/09 14:19:40;;;;;;;7.45;5.82;;;;;;;8.89;44.84;100216.16;10255469;28;20050;-67
2021/03/09 14:24:42;;;;;;;7.70;5.68;;;;;;;9.07;44.80;100224.56;10265027;28;20081;-66
2021/03/09 14:29:43;;;;;;;6.93;5.63;;;;;;;8.83;44.67;100228.06;10284734;28;20425;-67
2021/03/09 14:34:45;;;;;;;8.25;6.78;;;;;;;8.73;45.65;100231.53;10263042;28;20058;-67
2021/03/09 14:39:46;;;;;;;6.47;5.65;;;;;;;8.55;45.83;100218.63;10247001;28;20054;-67
2021/03/09 14:44:48;;;;;;;7.85;5.57;;;;;;;8.71;46.33;100239.59;10266497;28;20050;-66
2021/03/09 14:49:50;;;;;;;8.50;5.82;;;;;;;8.77;46.35;100235.66;10266384;28;20192;-67
2021/03/09 14:54:52;;;;;;;7.13;5.53;;;;;;;8.64;46.56;100233.03;10264045;28;20046;-66
2021/03/09 14:59:53;;;;;;;5.65;5.10;;;;;;;8.55;47.38;100239.00;10264362;28;20082;-66
2021/03/09 15:04:54;;;;;;;9.63;6.07;;;;;;;8.47;47.60;100232.44;10262658;28;20077;-67
2021/03/09 15:09:55;;;;;;;6.70;5.90;;;;;;;8.49;47.81;100241.13;10244523;28;20141;-68
2021/03/09 15:14:56;;;;;;;8.00;5.57;;;;;;;8.57;47.57;100237.09;10243357;28;21927;-66
2021/03/09 15:19:58;;;;;;;9.40;6.45;;;;;;;8.30;48.83;100241.59;10261032;28;20050;-67
2021/03/09 15:24:59;;;;;;;8.63;6.72;;;;;;;8.37;49.32;100235.84;10268610;28;20118;-66
2021/03/09 15:30:01;;;;;;;8.10;5.75;;;;;;;8.28;49.71;100237.34;10263137;28;20145;-67
2021/03/09 15:35:03;;;;;;;7.28;5.88;;;;;;;8.21;50.49;100225.47;10262021;28;20050;-67
2021/03/09 15:40:05;;;;;;;6.93;5.50;;;;;;;8.45;50.21;100222.91;10264977;28;20538;-67
2021/03/09 15:45:09;;;;;;;8.27;6.35;;;;;;;8.45;50.96;100226.41;10264500;28;20170;-68
2021/03/09 15:50:14;;;;;;;8.18;6.10;;;;;;;8.41;51.37;100232.88;10239460;28;20128;-67
2021/03/09 15:55:16;;;;;;;7.38;6.57;;;;;;;8.37;51.54;100238.50;10267073;28;20106;-68
2021/03/09 16:00:18;;;;;;;7.70;6.90;;;;;;;8.17;52.58;100226.63;10261532;28;20490;-69
2021/03/09 16:05:20;;;;;;;8.30;7.10;;;;;;;8.33;52.40;100227.25;10242146;28;21433;-68
2021/03/09 16:10:22;;;;;;;9.95;6.72;;;;;;;8.42;52.79;100234.56;10240928;28;20050;-69
2021/03/09 16:15:24;;;;;;;8.35;7.18;;;;;;;8.42;52.94;100223.97;10259308;28;20074;-68
2021/03/09 16:20:25;;;;;;;11.43;7.28;;;;;;;8.39;53.54;100228.63;10287220;28;20070;-68
2021/03/09 16:25:26;;;;;;;9.35;8.07;;;;;;;8.43;53.39;100230.09;10261628;28;20138;-68
2021/03/09 16:30:27;;;;;;;9.48;8.40;;;;;;;8.29;54.11;100223.13;10266564;28;20129;-68
2021/03/09 16:35:30;;;;;;;12.05;7.97;;;;;;;8.16;54.64;100214.34;10258666;28;20042;-68
2021/03/09 16:40:32;;;;;;;10.10;7.90;;;;;;;8.30;53.99;100240.72;10257011;28;20476;-68
2021/03/09 16:45:34;;;;;;;8.57;7.68;;;;;;;8.23;54.89;100245.63;10239591;28;20179;-67
2021/03/09 16:50:36;;;;;;;9.38;7.90;;;;;;;8.19;54.41;100251.25;10240133;28;20321;-68
2021/03/09 16:55:38;;;;;;;8.70;7.88;;;;;;;8.01;55.15;100248.09;10262563;28;20074;-69
2021/03/09 17:00:39;;;;;;;8.25;7.22;;;;;;;8.11;54.91;100255.28;10274263;28;20073;-68
2021/03/09 17:05:41;;;;;;;10.35;8.77;;;;;;;7.81;55.78;100254.75;10256787;28;20429;-68
2021/03/09 17:10:42;;;;;;;8.52;7.53;;;;;;;7.84;55.99;100267.84;10265238;28;20090;-67
2021/03/09 17:15:43;;;;;;;10.40;9.30;;;;;;;7.70;56.75;100274.91;10252484;28;20227;-67
2021/03/09 17:20:44;;;;;;;14.38;10.75;;;;;;;7.95;56.30;100274.06;10275330;28;20525;-68
2021/03/09 17:25:46;;;;;;;9.57;8.57;;;;;;;7.79;57.24;100268.13;10255983;28;20134;-69
2021/03/09 17:30:47;;;;;;;9.48;8.32;;;;;;;7.70;57.62;100277.56;10244903;28;20120;-68
2021/03/09 17:35:49;;;;;;;10.10;9.07;;;;;;;7.69;57.79;100278.50;10258635;28;20078;-67
2021/03/09 17:40:52;;;;;;;10.50;9.13;;;;;;;7.72;58.02;100283.59;10241811;28;20051;-68
2021/03/09 17:45:53;;;;;;;10.75;8.95;;;;;;;7.71;58.35;100281.06;10237219;28;20054;-68
2021/03/09 17:50:54;;;;;;;11.75;10.43;;;;;;;7.72;58.15;100291.56;10256152;28;20061;-68
2021/03/09 17:55:55;;;;;;;11.82;10.15;;;;;;;7.73;58.78;100295.91;10238872;28;20081;-67
2021/03/09 18:00:57;;;;;;;13.60;11.05;;;;;;;7.68;59.08;100308.59;10258166;28;20082;-69
2021/03/09 18:05:58;;;;;;;12.55;10.32;;;;;;;7.78;59.13;100300.91;10256936;28;20057;-69
2021/03/09 18:11:00;;;;;;;12.90;11.57;;;;;;;7.83;58.87;100312.00;10258523;28;20604;-67
2021/03/09 18:16:01;;;;;;;13.63;11.93;;;;;;;7.78;59.15;100311.50;10260840;28;20169;-67
2021/03/09 18:21:03;;;;;;;12.90;11.52;;;;;;;7.75;59.14;100314.34;10238711;28;20051;-66
2021/03/09 18:26:04;;;;;;;13.43;11.75;;;;;;;7.72;59.52;100317.22;10236120;28;20057;-67
2021/03/09 18:31:05;;;;;;;13.90;12.10;;;;;;;7.74;60.21;100326.72;10244606;28;20406;-66
2021/03/09 18:36:07;;;;;;;13.55;11.18;;;;;;;7.56;61.76;100320.03;10259318;28;20085;-69
2021/03/09 18:41:08;;;;;;;15.95;12.77;;;;;;;7.49;62.67;100314.31;10264355;28;20785;-69
2021/03/09 18:46:10;;;;;;;15.02;12.35;;;;;;;7.68;62.32;100332.44;10244816;28;20325;-67
2021/03/09 18:51:26;;;;;;;15.05;13.00;;;;;;;7.57;61.88;100333.16;10247275;28;20688;-68
2021/03/09 18:56:27;;;;;;;16.05;13.15;;;;;;;7.69;61.96;100335.97;10260067;28;20478;-68
2021/03/09 19:01:28;;;;;;;15.90;12.25;;;;;;;7.69;62.37;100341.25;10243116;28;20141;-68
2021/03/09 19:06:30;;;;;;;14.45;12.13;;;;;;;7.79;61.90;100329.06;10259196;28;20062;-69
2021/03/09 19:11:31;;;;;;;14.32;12.40;;;;;;;7.93;62.17;100344.06;10260198;28;20097;-70
2021/03/09 19:16:35;;;;;;;15.77;13.98;;;;;;;7.96;61.88;100343.84;10244845;28;20122;-68
2021/03/09 19:21:37;;;;;;;13.95;12.07;;;;;;;7.79;62.20;100348.50;10242248;28;20501;-66
2021/03/09 19:26:39;;;;;;;16.48;13.55;;;;;;;7.65;62.50;100351.19;10265523;28;20479;-67
2021/03/09 19:31:40;;;;;;;18.58;16.42;;;;;;;7.84;62.47;100350.81;10251783;28;20046;-66
2021/03/09 19:36:43;;;;;;;15.20;13.15;;;;;;;7.79;62.42;100351.13;10272084;28;20050;-70
2021/03/09 19:41:44;;;;;;;15.82;13.57;;;;;;;7.84;62.05;100339.38;10246952;28;20173;-69
2021/03/09 19:46:45;;;;;;;16.10;13.90;;;;;;;7.87;62.72;100344.47;10270092;28;20051;-68
2021/03/09 19:51:47;;;;;;;16.10;13.88;;;;;;;7.77;63.05;100339.78;10260394;28;20525;-68
2021/03/09 19:56:48;;;;;;;18.02;14.60;;;;;;;7.61;63.01;100331.16;10250185;28;20501;-68
2021/03/09 20:01:49;;;;;;;17.73;15.20;;;;;;;7.57;63.36;100345.56;10254111;28;20054;-66
2021/03/09 20:06:51;;;;;;;17.77;15.75;;;;;;;7.59;63.69;100357.75;10271074;28;20064;-68
2021/03/09 20:11:52;;;;;;;18.92;16.05;;;;;;;7.57;63.40;100348.22;10278827;28;20066;-69
2021/03/09 20:16:54;;;;;;;16.17;14.13;;;;;;;7.56;63.51;100347.34;10262629;28;20138;-70
2021/03/09 20:21:55;;;;;;;17.73;15.45;;;;;;;7.52;63.51;100347.66;10260610;28;20050;-69
2021/03/09 20:26:56;;;;;;;19.98;15.23;;;;;;;7.43;63.65;100341.16;10258685;28;20053;-68
2021/03/09 20:31:58;;;;;;;18.65;15.57;;;;;;;7.35;64.15;100349.63;10272933;28;20059;-69
2021/03/09 20:37:00;;;;;;;19.27;15.18;;;;;;;7.33;64.42;100361.28;10291222;28;20046;-69
2021/03/09 20:42:02;;;;;;;18.23;16.15;;;;;;;7.33;64.66;100356.00;10274226;28;20714;-71
2021/03/09 20:47:03;;;;;;;18.73;15.43;;;;;;;7.59;63.69;100362.22;10260786;28;20876;-67
2021/03/09 20:52:04;;;;;;;18.50;16.60;;;;;;;7.61;63.39;100355.00;10255832;28;21054;-69
2021/03/09 20:57:06;;;;;;;19.02;16.23;;;;;;;7.56;63.67;100368.56;10254807;28;20042;-69
2021/03/09 21:02:08;;;;;;;16.15;14.45;;;;;;;7.47;63.76;100363.88;10254466;28;20567;-68
2021/03/09 21:07:09;;;;;;;19.35;17.35;;;;;;;7.33;64.02;100348.88;10253102;28;20583;-67
2021/03/09 21:12:10;;;;;;;18.55;16.30;;;;;;;7.27;64.84;100357.22;10255059;28;20603;-69
2021/03/09 21:17:12;;;;;;;18.58;16.48;;;;;;;7.26;65.00;100350.22;10255044;28;20425;-69
2021/03/09 21:22:13;;;;;;;19.60;15.77;;;;;;;7.19;65.09;100354.22;10255578;28;20051;-67
2021/03/09 21:27:14;;;;;;;20.15;17.70;;;;;;;7.18;65.57;100368.44;10254666;28;20125;-68
2021/03/09 21:32:15;;;;;;;20.35;16.90;;;;;;;7.13;65.42;100368.72;10236945;28;20133;-68
2021/03/09 21:37:17;;;;;;;20.17;17.25;;;;;;;7.22;65.00;100361.97;10256570;28;20050;-69
2021/03/09 21:42:19;;;;;;;18.00;16.05;;;;;;;7.30;65.11;100366.78;10259662;28;20142;-67
2021/03/09 21:47:20;;;;;;;18.50;16.52;;;;;;;7.38;64.90;100360.00;10243562;28;20138;-68
2021/03/09 21:52:21;;;;;;;19.55;16.75;;;;;;;7.42;64.67;100365.97;10241873;28;20518;-68
2021/03/09 21:57:23;;;;;;;19.50;17.13;;;;;;;7.52;64.61;100368.84;10252931;28;20218;-67
2021/03/09 22:02:24;;;;;;;18.65;16.48;;;;;;;7.58;64.09;100371.09;10254945;28;20051;-69
2021/03/09 22:07:26;;;;;;;48.53;37.90;;;;;;;7.59;64.24;100367.50;10236672;28;20545;-68
2021/03/09 22:12:27;;;;;;;31.95;26.33;;;;;;;7.57;64.54;100354.38;10242189;28;20125;-68
2021/03/09 22:17:28;;;;;;;19.70;17.60;;;;;;;7.42;65.48;100356.22;10256678;28;20047;-69
2021/03/09 22:22:33;;;;;;;20.98;18.17;;;;;;;7.39;65.54;100356.44;10255900;28;20046;-68
2021/03/09 22:27:34;;;;;;;20.90;18.70;;;;;;;7.38;65.60;100353.88;10260528;28;20062;-69
2021/03/09 22:32:35;;;;;;;24.85;20.17;;;;;;;7.40;65.19;100350.19;10262809;28;20047;-68
2021/03/09 22:37:37;;;;;;;34.90;30.30;;;;;;;7.40;65.46;100344.03;10283169;28;20047;-67
2021/03/09 22:42:38;;;;;;;21.95;19.50;;;;;;;7.36;65.53;100346.03;10262238;28;20054;-70
2021/03/09 22:47:40;;;;;;;24.58;19.80;;;;;;;7.32;65.97;100331.28;10261791;28;20065;-68
2021/03/09 22:52:42;;;;;;;21.48;17.88;;;;;;;7.30;66.02;100327.06;10285366;28;20054;-67
2021/03/09 22:57:43;;;;;;;23.63;19.75;;;;;;;7.22;66.62;100320.47;10285452;28;20054;-67
2021/03/09 23:02:44;;;;;;;20.83;18.58;;;;;;;7.18;66.92;100323.41;10275342;28;20580;-69
2021/03/09 23:07:46;;;;;;;20.95;18.48;;;;;;;7.22;66.56;100333.72;10279658;28;20069;-69